sensor_id;sensor_type;location;lat;lon;timestamp;P1;durP1;ratioP1;P2;durP2;ratioP2
5807;SDS011;2930;42.678;23.312;2022-08-19T00:02:23;3.95;;;3.75;;
5807;SDS011;2930;42.678;23.312;2022-08-19T00:04:48;3.92;;;3.72;;
5807;SDS011;2930;42.678;23.312;2022-08-19T00:07:17;4.05;;;3.78;;
5807;SDS011;2930;42.678;23.312;2022-08-19T00:09:44;4.32;;;3.95;;
5807;SDS011;2930;42.678;23.312;2022-08-19T00:12:10;3.72;;;3.53;;
5807;SDS011;2930;42.678;23.312;2022-08-19T00:14:37;3.85;;;3.65;;
5807;SDS011;2930;42.678;23.312;2022-08-19T00:17:05;4.00;;;3.15;;
5807;SDS011;2930;42.678;23.312;2022-08-19T00:19:31;3.47;;;3.35;;
5807;SDS011;2930;42.678;23.312;2022-08-19T00:21:57;4.38;;;4.07;;
5807;SDS011;2930;42.678;23.312;2022-08-19T00:24:23;3.88;;;3.58;;
5807;SDS011;2930;42.678;23.312;2022-08-19T00:26:48;3.00;;;3.00;;
5807;SDS011;2930;42.678;23.312;2022-08-19T00:29:15;3.75;;;3.45;;
5807;SDS011;2930;42.678;23.312;2022-08-19T00:31:44;3.67;;;3.42;;
5807;SDS011;2930;42.678;23.312;2022-08-19T00:34:11;4.65;;;3.83;;
5807;SDS011;2930;42.678;23.312;2022-08-19T00:36:39;5.32;;;3.22;;
5807;SDS011;2930;42.678;23.312;2022-08-19T00:39:06;3.97;;;3.78;;
5807;SDS011;2930;42.678;23.312;2022-08-19T00:41:32;3.92;;;3.65;;
5807;SDS011;2930;42.678;23.312;2022-08-19T00:44:03;4.35;;;3.60;;
5807;SDS011;2930;42.678;23.312;2022-08-19T00:46:36;4.43;;;4.13;;
5807;SDS011;2930;42.678;23.312;2022-08-19T00:49:05;4.75;;;4.07;;
5807;SDS011;2930;42.678;23.312;2022-08-19T00:51:35;4.68;;;4.10;;
5807;SDS011;2930;42.678;23.312;2022-08-19T00:54:01;4.03;;;3.67;;
5807;SDS011;2930;42.678;23.312;2022-08-19T00:56:27;3.65;;;3.45;;
5807;SDS011;2930;42.678;23.312;2022-08-19T00:58:54;3.58;;;3.42;;
5807;SDS011;2930;42.678;23.312;2022-08-19T01:01:21;3.53;;;3.42;;
5807;SDS011;2930;42.678;23.312;2022-08-19T01:03:47;3.78;;;3.63;;
5807;SDS011;2930;42.678;23.312;2022-08-19T01:06:13;3.92;;;3.78;;
5807;SDS011;2930;42.678;23.312;2022-08-19T01:08:39;3.75;;;3.58;;
5807;SDS011;2930;42.678;23.312;2022-08-19T01:11:05;3.95;;;3.75;;
5807;SDS011;2930;42.678;23.312;2022-08-19T01:13:32;4.18;;;3.97;;
5807;SDS011;2930;42.678;23.312;2022-08-19T01:16:00;4.20;;;3.90;;
5807;SDS011;2930;42.678;23.312;2022-08-19T01:18:31;4.30;;;4.00;;
5807;SDS011;2930;42.678;23.312;2022-08-19T01:21:02;4.70;;;4.50;;
5807;SDS011;2930;42.678;23.312;2022-08-19T01:23:31;4.55;;;4.25;;
5807;SDS011;2930;42.678;23.312;2022-08-19T01:26:10;4.43;;;4.03;;
5807;SDS011;2930;42.678;23.312;2022-08-19T01:28:43;3.63;;;3.42;;
5807;SDS011;2930;42.678;23.312;2022-08-19T01:31:13;4.43;;;3.85;;
5807;SDS011;2930;42.678;23.312;2022-08-19T01:33:41;4.00;;;3.80;;
5807;SDS011;2930;42.678;23.312;2022-08-19T01:36:09;4.13;;;3.83;;
5807;SDS011;2930;42.678;23.312;2022-08-19T01:38:39;3.63;;;3.53;;
5807;SDS011;2930;42.678;23.312;2022-08-19T01:41:08;4.03;;;3.83;;
5807;SDS011;2930;42.678;23.312;2022-08-19T01:43:34;4.30;;;4.00;;
5807;SDS011;2930;42.678;23.312;2022-08-19T01:46:01;4.03;;;3.72;;
5807;SDS011;2930;42.678;23.312;2022-08-19T01:48:32;4.00;;;3.80;;
5807;SDS011;2930;42.678;23.312;2022-08-19T01:50:59;3.88;;;3.63;;
5807;SDS011;2930;42.678;23.312;2022-08-19T01:53:25;5.00;;;4.18;;
5807;SDS011;2930;42.678;23.312;2022-08-19T01:55:50;3.83;;;3.63;;
5807;SDS011;2930;42.678;23.312;2022-08-19T01:58:18;3.88;;;3.67;;
5807;SDS011;2930;42.678;23.312;2022-08-19T02:00:47;4.15;;;3.95;;
5807;SDS011;2930;42.678;23.312;2022-08-19T02:03:14;3.95;;;3.63;;
5807;SDS011;2930;42.678;23.312;2022-08-19T02:05:39;4.53;;;4.15;;
5807;SDS011;2930;42.678;23.312;2022-08-19T02:08:06;4.25;;;3.85;;
5807;SDS011;2930;42.678;23.312;2022-08-19T02:10:32;3.85;;;3.65;;
5807;SDS011;2930;42.678;23.312;2022-08-19T02:12:58;4.35;;;3.83;;
5807;SDS011;2930;42.678;23.312;2022-08-19T02:15:24;4.30;;;4.03;;
5807;SDS011;2930;42.678;23.312;2022-08-19T02:17:51;4.32;;;4.03;;
5807;SDS011;2930;42.678;23.312;2022-08-19T02:20:17;3.78;;;3.63;;
5807;SDS011;2930;42.678;23.312;2022-08-19T02:22:43;6.20;;;3.65;;
5807;SDS011;2930;42.678;23.312;2022-08-19T02:25:12;4.13;;;3.92;;
5807;SDS011;2930;42.678;23.312;2022-08-19T02:27:39;3.97;;;3.55;;
5807;SDS011;2930;42.678;23.312;2022-08-19T02:30:06;3.72;;;3.53;;
5807;SDS011;2930;42.678;23.312;2022-08-19T02:32:35;3.80;;;3.50;;
5807;SDS011;2930;42.678;23.312;2022-08-19T02:35:00;7.05;;;3.70;;
5807;SDS011;2930;42.678;23.312;2022-08-19T02:37:26;3.92;;;3.72;;
5807;SDS011;2930;42.678;23.312;2022-08-19T02:40:11;3.88;;;3.72;;
5807;SDS011;2930;42.678;23.312;2022-08-19T02:42:37;5.72;;;3.83;;
5807;SDS011;2930;42.678;23.312;2022-08-19T02:45:03;5.00;;;3.58;;
5807;SDS011;2930;42.678;23.312;2022-08-19T02:47:29;3.67;;;3.47;;
5807;SDS011;2930;42.678;23.312;2022-08-19T02:49:55;3.83;;;3.63;;
5807;SDS011;2930;42.678;23.312;2022-08-19T02:52:21;3.60;;;3.45;;
5807;SDS011;2930;42.678;23.312;2022-08-19T02:54:48;4.07;;;3.88;;
5807;SDS011;2930;42.678;23.312;2022-08-19T02:57:14;4.38;;;4.15;;
5807;SDS011;2930;42.678;23.312;2022-08-19T02:59:40;4.60;;;3.92;;
5807;SDS011;2930;42.678;23.312;2022-08-19T03:02:05;4.72;;;4.03;;
5807;SDS011;2930;42.678;23.312;2022-08-19T03:04:31;3.92;;;3.65;;
5807;SDS011;2930;42.678;23.312;2022-08-19T03:06:57;4.18;;;3.97;;
5807;SDS011;2930;42.678;23.312;2022-08-19T03:09:22;4.00;;;3.70;;
5807;SDS011;2930;42.678;23.312;2022-08-19T03:11:48;3.30;;;3.20;;
5807;SDS011;2930;42.678;23.312;2022-08-19T03:14:15;4.20;;;3.83;;
5807;SDS011;2930;42.678;23.312;2022-08-19T03:16:43;4.35;;;4.15;;
5807;SDS011;2930;42.678;23.312;2022-08-19T03:19:10;4.20;;;3.83;;
5807;SDS011;2930;42.678;23.312;2022-08-19T03:21:36;5.20;;;4.03;;
5807;SDS011;2930;42.678;23.312;2022-08-19T03:24:03;4.22;;;3.90;;
5807;SDS011;2930;42.678;23.312;2022-08-19T03:26:31;4.25;;;3.60;;
5807;SDS011;2930;42.678;23.312;2022-08-19T03:29:01;4.00;;;3.80;;
5807;SDS011;2930;42.678;23.312;2022-08-19T03:31:29;3.97;;;3.67;;
5807;SDS011;2930;42.678;23.312;2022-08-19T03:33:56;5.57;;;3.90;;
5807;SDS011;2930;42.678;23.312;2022-08-19T03:36:23;4.57;;;3.85;;
5807;SDS011;2930;42.678;23.312;2022-08-19T03:38:51;3.60;;;3.50;;
5807;SDS011;2930;42.678;23.312;2022-08-19T03:41:41;3.67;;;3.47;;
5807;SDS011;2930;42.678;23.312;2022-08-19T03:44:06;4.30;;;4.00;;
5807;SDS011;2930;42.678;23.312;2022-08-19T03:46:33;5.60;;;3.72;;
5807;SDS011;2930;42.678;23.312;2022-08-19T03:49:00;4.57;;;4.22;;
5807;SDS011;2930;42.678;23.312;2022-08-19T03:51:34;3.22;;;3.13;;
5807;SDS011;2930;42.678;23.312;2022-08-19T03:54:02;3.80;;;3.60;;
5807;SDS011;2930;42.678;23.312;2022-08-19T03:56:30;4.05;;;3.88;;
5807;SDS011;2930;42.678;23.312;2022-08-19T03:58:56;4.28;;;4.07;;
5807;SDS011;2930;42.678;23.312;2022-08-19T04:01:24;4.57;;;4.28;;
5807;SDS011;2930;42.678;23.312;2022-08-19T04:03:52;4.32;;;4.13;;
5807;SDS011;2930;42.678;23.312;2022-08-19T04:06:19;5.05;;;4.68;;
5807;SDS011;2930;42.678;23.312;2022-08-19T04:08:54;4.18;;;3.88;;
5807;SDS011;2930;42.678;23.312;2022-08-19T04:11:21;5.22;;;4.15;;
5807;SDS011;2930;42.678;23.312;2022-08-19T04:13:49;6.15;;;4.70;;
5807;SDS011;2930;42.678;23.312;2022-08-19T04:16:18;4.95;;;4.57;;
5807;SDS011;2930;42.678;23.312;2022-08-19T04:18:45;4.80;;;4.50;;
5807;SDS011;2930;42.678;23.312;2022-08-19T04:21:14;4.65;;;4.25;;
5807;SDS011;2930;42.678;23.312;2022-08-19T04:23:42;4.47;;;4.22;;
5807;SDS011;2930;42.678;23.312;2022-08-19T04:26:11;4.63;;;4.32;;
5807;SDS011;2930;42.678;23.312;2022-08-19T04:28:41;4.88;;;4.50;;
5807;SDS011;2930;42.678;23.312;2022-08-19T04:31:11;4.55;;;4.25;;
5807;SDS011;2930;42.678;23.312;2022-08-19T04:33:39;4.57;;;4.28;;
5807;SDS011;2930;42.678;23.312;2022-08-19T04:36:05;4.55;;;4.05;;
5807;SDS011;2930;42.678;23.312;2022-08-19T04:38:31;4.43;;;4.05;;
5807;SDS011;2930;42.678;23.312;2022-08-19T04:40:56;5.18;;;4.88;;
5807;SDS011;2930;42.678;23.312;2022-08-19T04:43:41;4.85;;;4.45;;
5807;SDS011;2930;42.678;23.312;2022-08-19T04:46:11;4.18;;;3.97;;
5807;SDS011;2930;42.678;23.312;2022-08-19T04:48:37;4.60;;;4.18;;
5807;SDS011;2930;42.678;23.312;2022-08-19T04:51:08;3.92;;;3.72;;
5807;SDS011;2930;42.678;23.312;2022-08-19T04:53:36;4.70;;;4.28;;
5807;SDS011;2930;42.678;23.312;2022-08-19T04:56:07;5.05;;;4.30;;
5807;SDS011;2930;42.678;23.312;2022-08-19T04:58:39;4.53;;;4.22;;
5807;SDS011;2930;42.678;23.312;2022-08-19T05:01:12;4.43;;;4.13;;
5807;SDS011;2930;42.678;23.312;2022-08-19T05:03:39;4.20;;;3.90;;
5807;SDS011;2930;42.678;23.312;2022-08-19T05:06:09;4.88;;;4.57;;
5807;SDS011;2930;42.678;23.312;2022-08-19T05:08:38;4.60;;;4.40;;
5807;SDS011;2930;42.678;23.312;2022-08-19T05:14:09;4.30;;;4.10;;
5807;SDS011;2930;42.678;23.312;2022-08-19T05:16:37;5.68;;;5.07;;
5807;SDS011;2930;42.678;23.312;2022-08-19T05:19:03;5.00;;;4.65;;
5807;SDS011;2930;42.678;23.312;2022-08-19T05:21:47;5.07;;;4.78;;
5807;SDS011;2930;42.678;23.312;2022-08-19T05:24:32;4.80;;;4.50;;
5807;SDS011;2930;42.678;23.312;2022-08-19T05:27:00;4.75;;;4.40;;
5807;SDS011;2930;42.678;23.312;2022-08-19T05:29:27;5.25;;;4.82;;
5807;SDS011;2930;42.678;23.312;2022-08-19T05:31:54;4.80;;;4.40;;
5807;SDS011;2930;42.678;23.312;2022-08-19T05:34:21;4.80;;;4.50;;
5807;SDS011;2930;42.678;23.312;2022-08-19T05:36:49;4.68;;;4.43;;
5807;SDS011;2930;42.678;23.312;2022-08-19T05:39:20;4.75;;;4.43;;
5807;SDS011;2930;42.678;23.312;2022-08-19T05:41:48;5.07;;;4.38;;
5807;SDS011;2930;42.678;23.312;2022-08-19T05:44:15;5.20;;;4.72;;
5807;SDS011;2930;42.678;23.312;2022-08-19T05:46:42;5.45;;;5.00;;
5807;SDS011;2930;42.678;23.312;2022-08-19T05:49:11;5.35;;;4.97;;
5807;SDS011;2930;42.678;23.312;2022-08-19T05:51:38;5.35;;;4.88;;
5807;SDS011;2930;42.678;23.312;2022-08-19T05:54:04;5.15;;;4.85;;
5807;SDS011;2930;42.678;23.312;2022-08-19T05:56:32;5.20;;;5.00;;
5807;SDS011;2930;42.678;23.312;2022-08-19T05:59:01;5.30;;;4.88;;
5807;SDS011;2930;42.678;23.312;2022-08-19T06:01:27;6.15;;;5.43;;
5807;SDS011;2930;42.678;23.312;2022-08-19T06:03:53;7.32;;;5.18;;
5807;SDS011;2930;42.678;23.312;2022-08-19T06:06:19;4.75;;;4.53;;
5807;SDS011;2930;42.678;23.312;2022-08-19T06:08:45;5.47;;;5.07;;
5807;SDS011;2930;42.678;23.312;2022-08-19T06:11:31;4.90;;;4.50;;
5807;SDS011;2930;42.678;23.312;2022-08-19T06:14:05;4.45;;;4.22;;
5807;SDS011;2930;42.678;23.312;2022-08-19T06:16:37;5.47;;;5.10;;
5807;SDS011;2930;42.678;23.312;2022-08-19T06:19:06;5.88;;;5.40;;
5807;SDS011;2930;42.678;23.312;2022-08-19T06:21:35;4.70;;;4.50;;
5807;SDS011;2930;42.678;23.312;2022-08-19T06:24:02;4.65;;;4.53;;
5807;SDS011;2930;42.678;23.312;2022-08-19T06:26:33;5.25;;;4.60;;
5807;SDS011;2930;42.678;23.312;2022-08-19T06:28:59;5.68;;;5.10;;
5807;SDS011;2930;42.678;23.312;2022-08-19T06:31:25;4.53;;;4.32;;
5807;SDS011;2930;42.678;23.312;2022-08-19T06:33:52;5.03;;;4.68;;
5807;SDS011;2930;42.678;23.312;2022-08-19T06:36:22;4.82;;;4.53;;
5807;SDS011;2930;42.678;23.312;2022-08-19T06:38:57;5.13;;;4.43;;
5807;SDS011;2930;42.678;23.312;2022-08-19T06:41:26;4.85;;;4.55;;
5807;SDS011;2930;42.678;23.312;2022-08-19T06:43:52;4.70;;;4.30;;
5807;SDS011;2930;42.678;23.312;2022-08-19T06:46:19;5.43;;;5.00;;
5807;SDS011;2930;42.678;23.312;2022-08-19T06:48:45;4.72;;;4.32;;
5807;SDS011;2930;42.678;23.312;2022-08-19T06:51:13;5.05;;;4.55;;
5807;SDS011;2930;42.678;23.312;2022-08-19T06:53:41;5.10;;;4.70;;
5807;SDS011;2930;42.678;23.312;2022-08-19T06:56:11;5.05;;;4.75;;
5807;SDS011;2930;42.678;23.312;2022-08-19T06:58:38;4.85;;;4.50;;
5807;SDS011;2930;42.678;23.312;2022-08-19T07:01:03;5.28;;;4.88;;
5807;SDS011;2930;42.678;23.312;2022-08-19T07:03:30;4.72;;;4.43;;
5807;SDS011;2930;42.678;23.312;2022-08-19T07:05:58;3.70;;;3.60;;
5807;SDS011;2930;42.678;23.312;2022-08-19T07:08:29;4.32;;;4.15;;
5807;SDS011;2930;42.678;23.312;2022-08-19T07:10:54;4.15;;;4.05;;
5807;SDS011;2930;42.678;23.312;2022-08-19T07:13:21;4.82;;;4.60;;
5807;SDS011;2930;42.678;23.312;2022-08-19T07:15:47;3.83;;;3.65;;
5807;SDS011;2930;42.678;23.312;2022-08-19T07:18:15;4.50;;;4.10;;
5807;SDS011;2930;42.678;23.312;2022-08-19T07:20:42;4.40;;;3.75;;
5807;SDS011;2930;42.678;23.312;2022-08-19T07:23:08;5.05;;;4.75;;
5807;SDS011;2930;42.678;23.312;2022-08-19T07:25:36;4.85;;;4.45;;
5807;SDS011;2930;42.678;23.312;2022-08-19T07:28:02;4.45;;;4.35;;
5807;SDS011;2930;42.678;23.312;2022-08-19T07:30:28;5.80;;;5.40;;
5807;SDS011;2930;42.678;23.312;2022-08-19T07:32:54;5.10;;;4.53;;
5807;SDS011;2930;42.678;23.312;2022-08-19T07:35:21;4.40;;;4.18;;
5807;SDS011;2930;42.678;23.312;2022-08-19T07:37:48;4.78;;;4.30;;
5807;SDS011;2930;42.678;23.312;2022-08-19T07:40:14;5.07;;;4.70;;
5807;SDS011;2930;42.678;23.312;2022-08-19T07:42:41;5.45;;;4.97;;
5807;SDS011;2930;42.678;23.312;2022-08-19T07:45:08;6.30;;;4.63;;
5807;SDS011;2930;42.678;23.312;2022-08-19T07:47:35;4.70;;;4.55;;
5807;SDS011;2930;42.678;23.312;2022-08-19T07:50:01;4.95;;;4.47;;
5807;SDS011;2930;42.678;23.312;2022-08-19T07:52:29;4.82;;;4.57;;
5807;SDS011;2930;42.678;23.312;2022-08-19T07:54:55;7.03;;;4.68;;
5807;SDS011;2930;42.678;23.312;2022-08-19T07:57:22;5.00;;;4.50;;
5807;SDS011;2930;42.678;23.312;2022-08-19T07:59:48;5.38;;;4.88;;
5807;SDS011;2930;42.678;23.312;2022-08-19T08:02:14;12.40;;;5.30;;
5807;SDS011;2930;42.678;23.312;2022-08-19T08:04:41;7.13;;;4.60;;
5807;SDS011;2930;42.678;23.312;2022-08-19T08:07:25;4.93;;;4.70;;
5807;SDS011;2930;42.678;23.312;2022-08-19T08:10:09;5.03;;;4.55;;
5807;SDS011;2930;42.678;23.312;2022-08-19T08:12:37;5.18;;;4.50;;
5807;SDS011;2930;42.678;23.312;2022-08-19T08:15:09;4.90;;;4.70;;
5807;SDS011;2930;42.678;23.312;2022-08-19T08:17:37;4.15;;;3.95;;
5807;SDS011;2930;42.678;23.312;2022-08-19T08:20:05;4.50;;;4.20;;
5807;SDS011;2930;42.678;23.312;2022-08-19T08:22:32;3.92;;;3.83;;
5807;SDS011;2930;42.678;23.312;2022-08-19T08:25:18;3.78;;;3.67;;
5807;SDS011;2930;42.678;23.312;2022-08-19T08:27:47;3.75;;;3.63;;
5807;SDS011;2930;42.678;23.312;2022-08-19T08:30:22;4.90;;;4.60;;
5807;SDS011;2930;42.678;23.312;2022-08-19T08:32:49;6.32;;;4.47;;
5807;SDS011;2930;42.678;23.312;2022-08-19T08:35:17;5.60;;;4.05;;
5807;SDS011;2930;42.678;23.312;2022-08-19T08:37:45;4.07;;;3.88;;
5807;SDS011;2930;42.678;23.312;2022-08-19T08:40:23;4.18;;;3.88;;
5807;SDS011;2930;42.678;23.312;2022-08-19T08:43:04;3.60;;;3.50;;
5807;SDS011;2930;42.678;23.312;2022-08-19T08:45:34;3.78;;;3.67;;
5807;SDS011;2930;42.678;23.312;2022-08-19T08:48:11;3.78;;;3.58;;
5807;SDS011;2930;42.678;23.312;2022-08-19T08:51:03;3.70;;;3.50;;
5807;SDS011;2930;42.678;23.312;2022-08-19T08:53:35;2.97;;;2.88;;
5807;SDS011;2930;42.678;23.312;2022-08-19T08:56:04;4.35;;;4.03;;
5807;SDS011;2930;42.678;23.312;2022-08-19T08:58:39;4.68;;;4.43;;
5807;SDS011;2930;42.678;23.312;2022-08-19T09:01:14;4.40;;;4.10;;
5807;SDS011;2930;42.678;23.312;2022-08-19T09:03:41;4.88;;;4.00;;
5807;SDS011;2930;42.678;23.312;2022-08-19T09:09:17;4.00;;;3.80;;
5807;SDS011;2930;42.678;23.312;2022-08-19T09:11:48;4.05;;;3.88;;
5807;SDS011;2930;42.678;23.312;2022-08-19T09:17:06;4.00;;;3.70;;
5807;SDS011;2930;42.678;23.312;2022-08-19T09:22:36;3.35;;;3.25;;
5807;SDS011;2930;42.678;23.312;2022-08-19T09:25:03;2.97;;;2.85;;
5807;SDS011;2930;42.678;23.312;2022-08-19T09:27:30;2.63;;;2.63;;
5807;SDS011;2930;42.678;23.312;2022-08-19T09:29:57;3.10;;;3.03;;
5807;SDS011;2930;42.678;23.312;2022-08-19T09:32:23;2.88;;;2.65;;
5807;SDS011;2930;42.678;23.312;2022-08-19T09:34:51;2.67;;;2.55;;
5807;SDS011;2930;42.678;23.312;2022-08-19T09:37:19;2.53;;;2.42;;
5807;SDS011;2930;42.678;23.312;2022-08-19T09:39:46;4.63;;;2.38;;
5807;SDS011;2930;42.678;23.312;2022-08-19T09:42:11;2.20;;;2.20;;
5807;SDS011;2930;42.678;23.312;2022-08-19T09:44:39;2.47;;;2.45;;
5807;SDS011;2930;42.678;23.312;2022-08-19T09:47:05;2.80;;;2.70;;
5807;SDS011;2930;42.678;23.312;2022-08-19T09:49:32;2.55;;;2.45;;
5807;SDS011;2930;42.678;23.312;2022-08-19T09:51:58;2.50;;;2.40;;
5807;SDS011;2930;42.678;23.312;2022-08-19T09:54:24;2.65;;;2.50;;
5807;SDS011;2930;42.678;23.312;2022-08-19T09:56:54;2.40;;;2.40;;
5807;SDS011;2930;42.678;23.312;2022-08-19T09:59:21;2.35;;;2.25;;
5807;SDS011;2930;42.678;23.312;2022-08-19T10:01:47;2.30;;;2.10;;
5807;SDS011;2930;42.678;23.312;2022-08-19T10:04:12;2.08;;;2.08;;
5807;SDS011;2930;42.678;23.312;2022-08-19T10:06:38;2.72;;;2.22;;
5807;SDS011;2930;42.678;23.312;2022-08-19T10:09:05;2.22;;;2.17;;
5807;SDS011;2930;42.678;23.312;2022-08-19T10:11:33;4.35;;;2.45;;
5807;SDS011;2930;42.678;23.312;2022-08-19T10:14:03;3.53;;;1.77;;
5807;SDS011;2930;42.678;23.312;2022-08-19T10:16:32;2.22;;;2.13;;
5807;SDS011;2930;42.678;23.312;2022-08-19T10:18:59;2.20;;;2.20;;
5807;SDS011;2930;42.678;23.312;2022-08-19T10:21:26;2.65;;;2.55;;
5807;SDS011;2930;42.678;23.312;2022-08-19T10:23:54;2.25;;;2.15;;
5807;SDS011;2930;42.678;23.312;2022-08-19T10:26:26;2.05;;;2.05;;
5807;SDS011;2930;42.678;23.312;2022-08-19T10:28:54;2.90;;;2.78;;
5807;SDS011;2930;42.678;23.312;2022-08-19T10:31:24;2.55;;;2.45;;
5807;SDS011;2930;42.678;23.312;2022-08-19T10:33:51;2.20;;;2.20;;
5807;SDS011;2930;42.678;23.312;2022-08-19T10:36:24;4.90;;;2.35;;
5807;SDS011;2930;42.678;23.312;2022-08-19T10:38:52;2.88;;;2.78;;
5807;SDS011;2930;42.678;23.312;2022-08-19T10:41:24;2.58;;;2.58;;
5807;SDS011;2930;42.678;23.312;2022-08-19T10:43:53;2.60;;;2.40;;
5807;SDS011;2930;42.678;23.312;2022-08-19T10:46:22;3.22;;;3.10;;
5807;SDS011;2930;42.678;23.312;2022-08-19T10:48:50;2.38;;;2.38;;
5807;SDS011;2930;42.678;23.312;2022-08-19T10:51:16;2.70;;;2.70;;
5807;SDS011;2930;42.678;23.312;2022-08-19T10:54:02;2.88;;;2.83;;
5807;SDS011;2930;42.678;23.312;2022-08-19T10:56:28;2.92;;;2.92;;
5807;SDS011;2930;42.678;23.312;2022-08-19T10:59:13;3.25;;;3.15;;
5807;SDS011;2930;42.678;23.312;2022-08-19T11:01:41;3.35;;;2.90;;
5807;SDS011;2930;42.678;23.312;2022-08-19T11:04:08;3.00;;;2.90;;
5807;SDS011;2930;42.678;23.312;2022-08-19T11:06:36;3.22;;;3.08;;
5807;SDS011;2930;42.678;23.312;2022-08-19T11:09:06;3.10;;;3.00;;
5807;SDS011;2930;42.678;23.312;2022-08-19T11:11:32;3.30;;;3.08;;
5807;SDS011;2930;42.678;23.312;2022-08-19T11:14:05;3.67;;;3.10;;
5807;SDS011;2930;42.678;23.312;2022-08-19T11:16:35;2.85;;;2.65;;
5807;SDS011;2930;42.678;23.312;2022-08-19T11:19:02;3.03;;;2.83;;
5807;SDS011;2930;42.678;23.312;2022-08-19T11:21:29;2.92;;;2.85;;
5807;SDS011;2930;42.678;23.312;2022-08-19T11:24:03;3.10;;;3.00;;
5807;SDS011;2930;42.678;23.312;2022-08-19T11:26:34;2.90;;;2.80;;
5807;SDS011;2930;42.678;23.312;2022-08-19T11:29:01;2.70;;;2.70;;
5807;SDS011;2930;42.678;23.312;2022-08-19T11:31:30;3.22;;;2.78;;
5807;SDS011;2930;42.678;23.312;2022-08-19T11:33:58;2.75;;;2.60;;
5807;SDS011;2930;42.678;23.312;2022-08-19T11:36:25;3.20;;;3.10;;
5807;SDS011;2930;42.678;23.312;2022-08-19T11:38:51;2.60;;;2.50;;
5807;SDS011;2930;42.678;23.312;2022-08-19T11:41:20;2.90;;;2.85;;
5807;SDS011;2930;42.678;23.312;2022-08-19T11:43:48;2.60;;;2.60;;
5807;SDS011;2930;42.678;23.312;2022-08-19T11:46:15;3.85;;;2.72;;
5807;SDS011;2930;42.678;23.312;2022-08-19T11:48:42;2.80;;;2.80;;
5807;SDS011;2930;42.678;23.312;2022-08-19T11:51:09;3.35;;;3.03;;
5807;SDS011;2930;42.678;23.312;2022-08-19T11:53:41;2.95;;;2.85;;
5807;SDS011;2930;42.678;23.312;2022-08-19T11:56:07;3.15;;;3.03;;
5807;SDS011;2930;42.678;23.312;2022-08-19T11:58:34;3.20;;;3.10;;
5807;SDS011;2930;42.678;23.312;2022-08-19T12:01:00;3.38;;;3.03;;
5807;SDS011;2930;42.678;23.312;2022-08-19T12:03:29;3.15;;;3.15;;
5807;SDS011;2930;42.678;23.312;2022-08-19T12:05:55;3.67;;;3.45;;
5807;SDS011;2930;42.678;23.312;2022-08-19T12:08:21;2.60;;;2.60;;
5807;SDS011;2930;42.678;23.312;2022-08-19T12:10:47;3.13;;;2.92;;
5807;SDS011;2930;42.678;23.312;2022-08-19T12:13:13;2.97;;;2.83;;
5807;SDS011;2930;42.678;23.312;2022-08-19T12:15:43;3.05;;;2.97;;
5807;SDS011;2930;42.678;23.312;2022-08-19T12:18:10;2.97;;;2.88;;
5807;SDS011;2930;42.678;23.312;2022-08-19T12:20:39;3.30;;;3.20;;
5807;SDS011;2930;42.678;23.312;2022-08-19T12:23:06;3.05;;;2.92;;
5807;SDS011;2930;42.678;23.312;2022-08-19T12:25:34;3.85;;;3.63;;
5807;SDS011;2930;42.678;23.312;2022-08-19T12:28:01;3.03;;;2.92;;
5807;SDS011;2930;42.678;23.312;2022-08-19T12:30:27;3.28;;;2.90;;
5807;SDS011;2930;42.678;23.312;2022-08-19T12:32:53;2.90;;;2.90;;
5807;SDS011;2930;42.678;23.312;2022-08-19T12:35:19;3.33;;;3.13;;
5807;SDS011;2930;42.678;23.312;2022-08-19T12:37:45;3.03;;;3.03;;
5807;SDS011;2930;42.678;23.312;2022-08-19T12:40:12;3.45;;;3.25;;
5807;SDS011;2930;42.678;23.312;2022-08-19T12:42:40;3.47;;;3.20;;
5807;SDS011;2930;42.678;23.312;2022-08-19T12:45:09;3.30;;;2.92;;
5807;SDS011;2930;42.678;23.312;2022-08-19T12:47:36;3.05;;;2.95;;
5807;SDS011;2930;42.678;23.312;2022-08-19T12:50:02;3.35;;;2.95;;
5807;SDS011;2930;42.678;23.312;2022-08-19T12:52:33;3.33;;;3.30;;
5807;SDS011;2930;42.678;23.312;2022-08-19T12:55:02;3.40;;;3.30;;
5807;SDS011;2930;42.678;23.312;2022-08-19T12:57:30;2.88;;;2.78;;
5807;SDS011;2930;42.678;23.312;2022-08-19T12:59:59;2.90;;;2.90;;
5807;SDS011;2930;42.678;23.312;2022-08-19T13:02:37;2.97;;;2.88;;
5807;SDS011;2930;42.678;23.312;2022-08-19T13:05:04;3.25;;;3.25;;
5807;SDS011;2930;42.678;23.312;2022-08-19T13:07:33;2.95;;;2.72;;
5807;SDS011;2930;42.678;23.312;2022-08-19T13:09:59;2.95;;;2.85;;
5807;SDS011;2930;42.678;23.312;2022-08-19T13:12:25;3.42;;;3.35;;
5807;SDS011;2930;42.678;23.312;2022-08-19T13:14:52;3.38;;;2.90;;
5807;SDS011;2930;42.678;23.312;2022-08-19T13:17:19;3.45;;;3.30;;
5807;SDS011;2930;42.678;23.312;2022-08-19T13:19:45;3.28;;;3.08;;
5807;SDS011;2930;42.678;23.312;2022-08-19T13:22:11;3.10;;;3.00;;
5807;SDS011;2930;42.678;23.312;2022-08-19T13:24:37;3.17;;;3.17;;
5807;SDS011;2930;42.678;23.312;2022-08-19T13:27:03;3.10;;;2.90;;
5807;SDS011;2930;42.678;23.312;2022-08-19T13:29:29;3.10;;;3.00;;
5807;SDS011;2930;42.678;23.312;2022-08-19T13:32:14;3.67;;;3.47;;
5807;SDS011;2930;42.678;23.312;2022-08-19T13:34:58;3.15;;;2.97;;
5807;SDS011;2930;42.678;23.312;2022-08-19T13:37:23;3.20;;;3.10;;
5807;SDS011;2930;42.678;23.312;2022-08-19T13:40:09;3.40;;;3.40;;
5807;SDS011;2930;42.678;23.312;2022-08-19T13:42:40;3.03;;;2.83;;
5807;SDS011;2930;42.678;23.312;2022-08-19T13:45:07;3.60;;;3.17;;
5807;SDS011;2930;42.678;23.312;2022-08-19T13:47:34;3.15;;;3.05;;
5807;SDS011;2930;42.678;23.312;2022-08-19T13:50:00;3.33;;;3.33;;
5807;SDS011;2930;42.678;23.312;2022-08-19T13:52:28;3.65;;;2.90;;
5807;SDS011;2930;42.678;23.312;2022-08-19T13:54:54;3.47;;;3.28;;
5807;SDS011;2930;42.678;23.312;2022-08-19T13:57:20;3.28;;;3.17;;
5807;SDS011;2930;42.678;23.312;2022-08-19T13:59:45;3.30;;;3.05;;
5807;SDS011;2930;42.678;23.312;2022-08-19T14:02:11;3.15;;;3.05;;
5807;SDS011;2930;42.678;23.312;2022-08-19T14:04:37;3.20;;;3.00;;
5807;SDS011;2930;42.678;23.312;2022-08-19T14:07:03;3.30;;;3.10;;
5807;SDS011;2930;42.678;23.312;2022-08-19T14:09:29;3.30;;;3.10;;
5807;SDS011;2930;42.678;23.312;2022-08-19T14:11:55;2.63;;;2.63;;
5807;SDS011;2930;42.678;23.312;2022-08-19T14:14:21;3.03;;;2.95;;
5807;SDS011;2930;42.678;23.312;2022-08-19T14:16:47;2.90;;;2.80;;
5807;SDS011;2930;42.678;23.312;2022-08-19T14:19:13;3.50;;;3.28;;
5807;SDS011;2930;42.678;23.312;2022-08-19T14:21:39;3.80;;;3.60;;
5807;SDS011;2930;42.678;23.312;2022-08-19T14:24:06;3.80;;;3.33;;
5807;SDS011;2930;42.678;23.312;2022-08-19T14:26:32;3.33;;;3.13;;
5807;SDS011;2930;42.678;23.312;2022-08-19T14:28:58;4.25;;;3.15;;
5807;SDS011;2930;42.678;23.312;2022-08-19T14:31:24;4.95;;;3.42;;
5807;SDS011;2930;42.678;23.312;2022-08-19T14:33:50;3.28;;;3.17;;
5807;SDS011;2930;42.678;23.312;2022-08-19T14:36:17;3.40;;;3.17;;
5807;SDS011;2930;42.678;23.312;2022-08-19T14:38:45;3.67;;;3.55;;
5807;SDS011;2930;42.678;23.312;2022-08-19T14:41:15;3.63;;;3.53;;
5807;SDS011;2930;42.678;23.312;2022-08-19T14:43:44;3.30;;;3.20;;
5807;SDS011;2930;42.678;23.312;2022-08-19T14:46:16;5.07;;;3.55;;
5807;SDS011;2930;42.678;23.312;2022-08-19T14:48:45;3.53;;;3.42;;
5807;SDS011;2930;42.678;23.312;2022-08-19T14:51:11;4.05;;;3.95;;
5807;SDS011;2930;42.678;23.312;2022-08-19T14:53:37;2.92;;;2.90;;
5807;SDS011;2930;42.678;23.312;2022-08-19T14:56:07;3.63;;;3.28;;
5807;SDS011;2930;42.678;23.312;2022-08-19T14:58:39;3.38;;;3.17;;
5807;SDS011;2930;42.678;23.312;2022-08-19T15:01:06;3.28;;;3.17;;
5807;SDS011;2930;42.678;23.312;2022-08-19T15:03:33;4.97;;;3.58;;
5807;SDS011;2930;42.678;23.312;2022-08-19T15:06:00;3.47;;;3.38;;
5807;SDS011;2930;42.678;23.312;2022-08-19T15:08:27;4.05;;;3.95;;
5807;SDS011;2930;42.678;23.312;2022-08-19T15:10:55;3.63;;;3.53;;
5807;SDS011;2930;42.678;23.312;2022-08-19T15:13:22;3.95;;;3.75;;
5807;SDS011;2930;42.678;23.312;2022-08-19T15:15:49;5.20;;;3.38;;
5807;SDS011;2930;42.678;23.312;2022-08-19T15:18:16;4.20;;;3.90;;
5807;SDS011;2930;42.678;23.312;2022-08-19T15:20:44;3.95;;;3.85;;